Seamaster — ZMV7638 — position and weather

sailwx.info

Track history (hours):
 
Tides and Currents Weather Stations Pressure Air Temp Water Temp Dewpoint Dewpoint Depression Visibility Wind Speed Wind Dir Waves Ship Positions

Seamaster

Last reported at 2015-Mar-28 23:12 UTC. Time now 2015-Mar-28 23:50 UTC.
Position S 36°51' E 174°54'.

Length 44 m.

Type: Passenger vessel. MMSI: 512001027.

Date/timePositionNaut miles runAvg speedWind from/ knotsBaromVisibWave heightAir tempDewpointWater temp
2015-Mar-28 23:12S 36°51' E 174°54'1 0.1
2015-Mar-28 17:15S 36°51' E 174°54'0 0.0
2015-Mar-28 02:13S 36°51' E 174°54'1 0.7
2015-Mar-28 01:22S 36°52' E 174°54'1 0.3
2015-Mar-27 23:14S 36°51' E 174°54'0 0.0
2015-Mar-27 20:11S 36°51' E 174°54'1 0.8
2015-Mar-27 19:25S 36°52' E 174°54'1 0.3
2015-Mar-27 17:16S 36°51' E 174°54'0 0.0
2015-Mar-27 02:18S 36°51' E 174°54'2 2.0
2015-Mar-27 01:30S 36°52' E 174°54'2 0.7
2015-Mar-26 23:20S 36°51' E 174°54'6 2.6
2015-Mar-26 21:07S 36°49' E 175°00'6 9.4
2015-Mar-26 20:30S 36°51' E 174°54'1 0.6
2015-Mar-26 19:33S 36°51' E 174°54'0 0.2
2015-Mar-26 17:18S 36°51' E 174°54'1 0.0
2015-Mar-26 02:11S 36°51' E 174°54'1 0.7
2015-Mar-26 01:25S 36°52' E 174°54'0 0.2
2015-Mar-25 23:11S 36°52' E 174°54'4 2.0
2015-Mar-25 21:10S 36°47' E 174°54'5 2.7
2015-Mar-25 19:28S 36°52' E 174°54'1 0.1
2015-Mar-25 04:31S 36°51' E 174°53'1 0.1
2015-Mar-24 19:28S 36°53' E 174°54'3 1.3
2015-Mar-24 17:29S 36°50' E 174°53'3 2.5
2015-Mar-24 16:24S 36°53' E 174°54'2 0.1
2015-Mar-24 04:33S 36°51' E 174°53'1 0.3
2015-Mar-24 01:24S 36°52' E 174°54'7 7.8
2015-Mar-24 00:33S 36°49' E 175°01'5 4.3
2015-Mar-23 23:26S 36°50' E 174°56'2 1.8
2015-Mar-23 22:20S 36°52' E 174°54'0 0.1
2015-Mar-23 19:26S 36°52' E 174°54'2 0.8
2015-Mar-23 17:23S 36°50' E 174°53'1 0.1
2015-Mar-23 04:33S 36°52' E 174°54'3 1.3
2015-Mar-23 02:33S 36°50' E 174°56'2 0.7
2015-Mar-22 23:22S 36°51' E 174°53'1 1.3
2015-Mar-22 22:23S 36°52' E 174°54'1 0.5
2015-Mar-22 20:14S 36°51' E 174°54'0 0.1
2015-Mar-22 17:22S 36°51' E 174°54'2 1.9
2015-Mar-22 16:21S 36°53' E 174°54'2 0.2
2015-Mar-22 02:20S 36°51' E 174°53'1 0.2
2015-Mar-21 20:12S 36°51' E 174°54'1 1.1
2015-Mar-21 19:22S 36°52' E 174°54'1 0.6
2015-Mar-21 17:17S 36°51' E 174°54'1 0.1
2015-Mar-21 04:23S 36°52' E 174°54'2 0.7
2015-Mar-21 02:18S 36°51' E 174°53'1 1.3
2015-Mar-21 01:33S 36°52' E 174°54'2 1.0
2015-Mar-20 23:25S 36°50' E 174°55'2 0.5
2015-Mar-20 19:21S 36°52' E 174°54'0 0.1
2015-Mar-20 17:17S 36°51' E 174°54'0 0.0
2015-Mar-20 04:19S 36°52' E 174°54'0 0.1
2015-Mar-20 02:11S 36°51' E 174°54'0 0.3
2015-Mar-20 01:29S 36°51' E 174°53'0 0.1
2015-Mar-19 23:10S 36°52' E 174°54'0 0.6
2015-Mar-19 22:24S 36°52' E 174°54'0 0.0
2015-Mar-19 19:22S 36°52' E 174°54'2 1.2
2015-Mar-19 17:31S 36°50' E 174°56'2 0.2
2015-Mar-19 04:25S 36°52' E 174°54'0 0.1
2015-Mar-19 01:30S 36°52' E 174°54'1 0.6
2015-Mar-18 23:22S 36°51' E 174°54'  
Track history (hours):
 
Tides and Currents Weather Stations Pressure Air Temp Water Temp Dewpoint Dewpoint Depression Visibility Wind Speed Wind Dir Waves Ship Positions

Seamaster

Last reported at 2015-Mar-28 23:12 UTC. Time now 2015-Mar-28 23:50 UTC.
Position S 36°51' E 174°54'.

Length 44 m.

Type: Passenger vessel. MMSI: 512001027.

Date/timePositionNaut miles runAvg speedWind from/ knotsBaromVisibWave heightAir tempDewpointWater temp
2015-Mar-28 23:12S 36°51' E 174°54'1 0.1
2015-Mar-28 17:15S 36°51' E 174°54'0 0.0
2015-Mar-28 02:13S 36°51' E 174°54'1 0.7
2015-Mar-28 01:22S 36°52' E 174°54'1 0.3
2015-Mar-27 23:14S 36°51' E 174°54'0 0.0
2015-Mar-27 20:11S 36°51' E 174°54'1 0.8
2015-Mar-27 19:25S 36°52' E 174°54'1 0.3
2015-Mar-27 17:16S 36°51' E 174°54'0 0.0
2015-Mar-27 02:18S 36°51' E 174°54'2 2.0
2015-Mar-27 01:30S 36°52' E 174°54'2 0.7
2015-Mar-26 23:20S 36°51' E 174°54'6 2.6
2015-Mar-26 21:07S 36°49' E 175°00'6 9.4
2015-Mar-26 20:30S 36°51' E 174°54'1 0.6
2015-Mar-26 19:33S 36°51' E 174°54'0 0.2
2015-Mar-26 17:18S 36°51' E 174°54'1 0.0
2015-Mar-26 02:11S 36°51' E 174°54'1 0.7
2015-Mar-26 01:25S 36°52' E 174°54'0 0.2
2015-Mar-25 23:11S 36°52' E 174°54'4 2.0
2015-Mar-25 21:10S 36°47' E 174°54'5 2.7
2015-Mar-25 19:28S 36°52' E 174°54'1 0.1
2015-Mar-25 04:31S 36°51' E 174°53'1 0.1
2015-Mar-24 19:28S 36°53' E 174°54'3 1.3
2015-Mar-24 17:29S 36°50' E 174°53'3 2.5
2015-Mar-24 16:24S 36°53' E 174°54'2 0.1
2015-Mar-24 04:33S 36°51' E 174°53'1 0.3
2015-Mar-24 01:24S 36°52' E 174°54'7 7.8
2015-Mar-24 00:33S 36°49' E 175°01'5 4.3
2015-Mar-23 23:26S 36°50' E 174°56'2 1.8
2015-Mar-23 22:20S 36°52' E 174°54'0 0.1
2015-Mar-23 19:26S 36°52' E 174°54'2 0.8
2015-Mar-23 17:23S 36°50' E 174°53'1 0.1
2015-Mar-23 04:33S 36°52' E 174°54'3 1.3
2015-Mar-23 02:33S 36°50' E 174°56'2 0.7
2015-Mar-22 23:22S 36°51' E 174°53'1 1.3
2015-Mar-22 22:23S 36°52' E 174°54'1 0.5
2015-Mar-22 20:14S 36°51' E 174°54'0 0.1
2015-Mar-22 17:22S 36°51' E 174°54'2 1.9
2015-Mar-22 16:21S 36°53' E 174°54'2 0.2
2015-Mar-22 02:20S 36°51' E 174°53'1 0.2
2015-Mar-21 20:12S 36°51' E 174°54'1 1.1
2015-Mar-21 19:22S 36°52' E 174°54'1 0.6
2015-Mar-21 17:17S 36°51' E 174°54'1 0.1
2015-Mar-21 04:23S 36°52' E 174°54'2 0.7
2015-Mar-21 02:18S 36°51' E 174°53'1 1.3
2015-Mar-21 01:33S 36°52' E 174°54'2 1.0
2015-Mar-20 23:25S 36°50' E 174°55'2 0.5
2015-Mar-20 19:21S 36°52' E 174°54'0 0.1
2015-Mar-20 17:17S 36°51' E 174°54'0 0.0
2015-Mar-20 04:19S 36°52' E 174°54'0 0.1
2015-Mar-20 02:11S 36°51' E 174°54'0 0.3
2015-Mar-20 01:29S 36°51' E 174°53'0 0.1
2015-Mar-19 23:10S 36°52' E 174°54'0 0.6
2015-Mar-19 22:24S 36°52' E 174°54'0 0.0
2015-Mar-19 19:22S 36°52' E 174°54'2 1.2
2015-Mar-19 17:31S 36°50' E 174°56'2 0.2
2015-Mar-19 04:25S 36°52' E 174°54'0 0.1
2015-Mar-19 01:30S 36°52' E 174°54'1 0.6
2015-Mar-18 23:22S 36°51' E 174°54'  

Dump ship's entire track history